FIN8PK EFHK-EFKS
Flight info
| Callsign | FIN8PK |
|---|---|
| Flight time | 1h 16m |
| Altitude | 33000 |
| Route | IDEPI Y232 ADOPO DCT UGLUM/N0455F340 T95 ETROD/N0457F350 DCT IXUBI DCT IBEVU |
| Aircraft | A321/M-SDE3FGHIRWY/LB1 |
Departure
| Time | 2026-05-05 14:07 |
|---|---|
| Airport | Helsinki Vantaa Airport (EFHK) |
Arrival
| Time | 2026-05-05 15:23 |
|---|---|
| Airport | Kuusamo Airport (EFKS) |
| Time | Latitude | Longitude | Altitude | Speed | Heading |
|---|---|---|---|---|---|
| 2026-05-05 13:46 | 60.31787 | 24.97088 | 170 ft | 0 kts | 243° |
| 2026-05-05 13:54 | 60.31787 | 24.97090 | 169 ft | 2 kts | 243° |
| 2026-05-05 13:55 | 60.31797 | 24.97126 | 169 ft | 3 kts | 242° |
| 2026-05-05 13:55 | 60.31806 | 24.97163 | 169 ft | 3 kts | 243° |
| 2026-05-05 13:55 | 60.31812 | 24.97190 | 169 ft | 1 kts | 259° |
| 2026-05-05 13:55 | 60.31812 | 24.97207 | 169 ft | 1 kts | 324° |
| 2026-05-05 13:56 | 60.31798 | 24.97222 | 169 ft | 3 kts | 333° |
| 2026-05-05 13:56 | 60.31784 | 24.97236 | 169 ft | 2 kts | 333° |
| 2026-05-05 13:56 | 60.31801 | 24.97218 | 169 ft | 2 kts | 333° |
| 2026-05-05 13:56 | 60.31811 | 24.97208 | 169 ft | 1 kts | 333° |
| 2026-05-05 13:57 | 60.31818 | 24.97201 | 169 ft | 1 kts | 333° |
| 2026-05-05 13:57 | 60.31821 | 24.97198 | 169 ft | 0 kts | 333° |
| 2026-05-05 13:58 | 60.31823 | 24.97196 | 169 ft | 1 kts | 333° |
| 2026-05-05 13:58 | 60.31827 | 24.97192 | 169 ft | 1 kts | 333° |
| 2026-05-05 13:58 | 60.31839 | 24.97180 | 169 ft | 5 kts | 333° |
| 2026-05-05 13:58 | 60.31872 | 24.97146 | 169 ft | 5 kts | 333° |
| 2026-05-05 13:59 | 60.31941 | 24.97073 | 169 ft | 0 kts | 332° |
| 2026-05-05 13:59 | 60.31943 | 24.97071 | 169 ft | 3 kts | 332° |
| 2026-05-05 14:00 | 60.32056 | 24.96951 | 169 ft | 11 kts | 332° |
| 2026-05-05 14:00 | 60.32099 | 24.96905 | 169 ft | 10 kts | 330° |
| 2026-05-05 14:00 | 60.32149 | 24.96849 | 169 ft | 11 kts | 330° |
| 2026-05-05 14:00 | 60.32179 | 24.96814 | 169 ft | 11 kts | 330° |
| 2026-05-05 14:01 | 60.32246 | 24.96735 | 169 ft | 11 kts | 329° |
| 2026-05-05 14:01 | 60.32306 | 24.96663 | 171 ft | 9 kts | 329° |
| 2026-05-05 14:01 | 60.32349 | 24.96612 | 175 ft | 6 kts | 330° |
| 2026-05-05 14:01 | 60.32382 | 24.96575 | 177 ft | 5 kts | 330° |
| 2026-05-05 14:02 | 60.32393 | 24.96562 | 178 ft | 4 kts | 330° |
| 2026-05-05 14:02 | 60.32452 | 24.96494 | 177 ft | 16 kts | 331° |
| 2026-05-05 14:02 | 60.32550 | 24.96381 | 177 ft | 16 kts | 329° |
| 2026-05-05 14:02 | 60.32649 | 24.96264 | 175 ft | 17 kts | 329° |
| 2026-05-05 14:03 | 60.32750 | 24.96145 | 176 ft | 16 kts | 331° |
| 2026-05-05 14:03 | 60.32845 | 24.96035 | 177 ft | 15 kts | 330° |
| 2026-05-05 14:03 | 60.32931 | 24.95936 | 179 ft | 13 kts | 329° |
| 2026-05-05 14:03 | 60.32999 | 24.95853 | 183 ft | 9 kts | 328° |
| 2026-05-05 14:04 | 60.33059 | 24.95783 | 196 ft | 10 kts | 329° |
| 2026-05-05 14:04 | 60.33116 | 24.95690 | 183 ft | 11 kts | 318° |
| 2026-05-05 14:04 | 60.33171 | 24.95590 | 199 ft | 10 kts | 317° |
| 2026-05-05 14:04 | 60.33207 | 24.95465 | 197 ft | 13 kts | 277° |
| 2026-05-05 14:05 | 60.33157 | 24.95275 | 181 ft | 19 kts | 229° |
| 2026-05-05 14:05 | 60.33106 | 24.95050 | 181 ft | 17 kts | 270° |
| 2026-05-05 14:05 | 60.33114 | 24.94827 | 183 ft | 15 kts | 273° |
| 2026-05-05 14:05 | 60.33118 | 24.94651 | 188 ft | 10 kts | 272° |
| 2026-05-05 14:06 | 60.33120 | 24.94526 | 192 ft | 11 kts | 272° |
| 2026-05-05 14:06 | 60.33105 | 24.94374 | 203 ft | 11 kts | 233° |
| 2026-05-05 14:06 | 60.33048 | 24.94251 | 195 ft | 18 kts | 230° |
| 2026-05-05 14:06 | 60.32832 | 24.93768 | 192 ft | 75 kts | 227° |
| 2026-05-05 14:07 | 60.32341 | 24.92678 | 174 ft | 135 kts | 228° |
| 2026-05-05 14:07 | 60.31878 | 24.91653 | 221 ft | 158 kts | 231° |
| 2026-05-05 14:07 | 60.31150 | 24.90032 | 826 ft | 150 kts | 230° |
| 2026-05-05 14:07 | 60.30494 | 24.88482 | 1569 ft | 142 kts | 244° |
| 2026-05-05 14:08 | 60.30352 | 24.86608 | 2166 ft | 142 kts | 283° |
| 2026-05-05 14:08 | 60.30661 | 24.84559 | 2507 ft | 164 kts | 286° |
| 2026-05-05 14:08 | 60.31039 | 24.82235 | 2804 ft | 185 kts | 287° |
| 2026-05-05 14:08 | 60.31456 | 24.79623 | 3094 ft | 206 kts | 286° |
| 2026-05-05 14:09 | 60.32005 | 24.76749 | 3388 ft | 231 kts | 294° |
| 2026-05-05 14:09 | 60.32773 | 24.73835 | 4086 ft | 238 kts | 297° |
| 2026-05-05 14:09 | 60.33597 | 24.70885 | 4861 ft | 244 kts | 297° |
| 2026-05-05 14:09 | 60.34525 | 24.67971 | 5621 ft | 251 kts | 308° |
| 2026-05-05 14:10 | 60.35884 | 24.65732 | 6497 ft | 258 kts | 330° |
| 2026-05-05 14:10 | 60.37654 | 24.64849 | 7312 ft | 272 kts | 355° |
| 2026-05-05 14:10 | 60.39533 | 24.65756 | 8117 ft | 288 kts | 21° |
| 2026-05-05 14:10 | 60.41288 | 24.67888 | 8890 ft | 300 kts | 28° |
| 2026-05-05 14:11 | 60.43024 | 24.70318 | 9666 ft | 307 kts | 29° |
| 2026-05-05 14:11 | 60.44820 | 24.72851 | 10134 ft | 324 kts | 29° |
| 2026-05-05 14:11 | 60.46727 | 24.75583 | 10438 ft | 349 kts | 33° |
| 2026-05-05 14:11 | 60.48462 | 24.79290 | 10747 ft | 378 kts | 54° |
| 2026-05-05 14:12 | 60.49740 | 24.84056 | 11265 ft | 394 kts | 63° |
| 2026-05-05 14:12 | 60.50908 | 24.89189 | 11983 ft | 402 kts | 65° |
| 2026-05-05 14:12 | 60.52073 | 24.94406 | 12646 ft | 412 kts | 65° |
| 2026-05-05 14:12 | 60.53258 | 24.99691 | 13242 ft | 422 kts | 65° |
| 2026-05-05 14:13 | 60.54496 | 25.05180 | 13812 ft | 431 kts | 65° |
| 2026-05-05 14:13 | 60.55756 | 25.10753 | 14467 ft | 436 kts | 65° |
| 2026-05-05 14:13 | 60.57029 | 25.16380 | 15153 ft | 440 kts | 65° |
| 2026-05-05 14:13 | 60.58313 | 25.22065 | 15814 ft | 443 kts | 65° |
| 2026-05-05 14:14 | 60.59602 | 25.27786 | 16505 ft | 447 kts | 65° |
| 2026-05-05 14:14 | 60.60903 | 25.33569 | 17126 ft | 452 kts | 65° |
| 2026-05-05 14:14 | 60.62214 | 25.39412 | 17744 ft | 456 kts | 65° |
| 2026-05-05 14:14 | 60.63537 | 25.45324 | 18294 ft | 461 kts | 65° |
| 2026-05-05 14:15 | 60.64869 | 25.51290 | 18819 ft | 465 kts | 65° |
| 2026-05-05 14:15 | 60.66208 | 25.57312 | 19348 ft | 468 kts | 65° |
| 2026-05-05 14:15 | 60.67555 | 25.63380 | 19899 ft | 473 kts | 65° |
| 2026-05-05 14:15 | 60.68920 | 25.69536 | 20329 ft | 479 kts | 64° |
| 2026-05-05 14:16 | 60.70489 | 25.75550 | 20845 ft | 481 kts | 54° |
| 2026-05-05 14:16 | 60.72576 | 25.80846 | 21360 ft | 478 kts | 39° |
| 2026-05-05 14:16 | 60.75088 | 25.85262 | 21867 ft | 476 kts | 32° |
| 2026-05-05 14:16 | 60.77743 | 25.89310 | 22377 ft | 477 kts | 29° |
| 2026-05-05 14:17 | 60.80477 | 25.93184 | 22860 ft | 479 kts | 27° |
| 2026-05-05 14:17 | 60.83248 | 25.96998 | 23316 ft | 482 kts | 27° |
| 2026-05-05 14:17 | 60.86043 | 26.00846 | 23679 ft | 485 kts | 27° |
| 2026-05-05 14:17 | 60.88841 | 26.04743 | 24061 ft | 488 kts | 28° |
| 2026-05-05 14:18 | 60.91653 | 26.08710 | 24437 ft | 492 kts | 28° |
| 2026-05-05 14:18 | 60.94479 | 26.12736 | 24764 ft | 496 kts | 28° |
| 2026-05-05 14:18 | 60.97315 | 26.16813 | 25126 ft | 499 kts | 28° |
| 2026-05-05 14:18 | 61.00161 | 26.20930 | 25509 ft | 501 kts | 28° |
| 2026-05-05 14:19 | 61.03012 | 26.25069 | 25868 ft | 503 kts | 28° |
| 2026-05-05 14:19 | 61.05882 | 26.29242 | 26185 ft | 506 kts | 28° |
| 2026-05-05 14:19 | 61.08767 | 26.33442 | 26535 ft | 508 kts | 29° |
| 2026-05-05 14:19 | 61.11659 | 26.37665 | 26863 ft | 510 kts | 29° |
| 2026-05-05 14:20 | 61.14562 | 26.41911 | 27178 ft | 512 kts | 29° |
| 2026-05-05 14:20 | 61.17477 | 26.46183 | 27507 ft | 516 kts | 29° |
| 2026-05-05 14:20 | 61.20414 | 26.50495 | 27792 ft | 518 kts | 29° |
| 2026-05-05 14:20 | 61.23360 | 26.54833 | 28105 ft | 520 kts | 29° |
| 2026-05-05 14:21 | 61.26314 | 26.59193 | 28460 ft | 521 kts | 29° |
| 2026-05-05 14:21 | 61.29260 | 26.63556 | 28908 ft | 519 kts | 29° |
| 2026-05-05 14:21 | 61.32194 | 26.67912 | 29346 ft | 518 kts | 29° |
| 2026-05-05 14:21 | 61.35127 | 26.72273 | 29742 ft | 517 kts | 29° |
| 2026-05-05 14:22 | 61.38051 | 26.76628 | 30077 ft | 516 kts | 28° |
| 2026-05-05 14:22 | 61.41080 | 26.80484 | 30461 ft | 505 kts | 18° |
| 2026-05-05 14:22 | 61.44281 | 26.83218 | 30795 ft | 491 kts | 8° |
| 2026-05-05 14:22 | 61.47562 | 26.84979 | 31104 ft | 484 kts | 4° |
| 2026-05-05 14:23 | 61.50847 | 26.86449 | 31407 ft | 481 kts | 2° |
| 2026-05-05 14:23 | 61.53810 | 26.87631 | 31661 ft | 480 kts | 1° |
| 2026-05-05 14:23 | 61.57090 | 26.88863 | 31946 ft | 478 kts | 1° |
| 2026-05-05 14:23 | 61.60363 | 26.90067 | 32213 ft | 478 kts | 1° |
| 2026-05-05 14:24 | 61.63632 | 26.91274 | 32477 ft | 477 kts | 1° |
| 2026-05-05 14:24 | 61.66906 | 26.92498 | 32668 ft | 479 kts | 1° |
| 2026-05-05 14:24 | 61.73459 | 26.94999 | 32676 ft | 478 kts | 2° |
| 2026-05-05 14:25 | 61.80000 | 26.97542 | 32678 ft | 478 kts | 2° |
| 2026-05-05 14:25 | 61.86540 | 27.00103 | 32671 ft | 478 kts | 2° |
| 2026-05-05 14:26 | 61.93077 | 27.02669 | 32671 ft | 478 kts | 2° |
| 2026-05-05 14:26 | 61.99616 | 27.05245 | 32666 ft | 478 kts | 2° |
| 2026-05-05 14:27 | 62.06154 | 27.07832 | 32665 ft | 478 kts | 2° |
| 2026-05-05 14:27 | 62.12691 | 27.10430 | 32658 ft | 478 kts | 2° |
| 2026-05-05 14:28 | 62.19224 | 27.13038 | 32661 ft | 478 kts | 2° |
| 2026-05-05 14:28 | 62.25718 | 27.15642 | 32661 ft | 478 kts | 2° |
| 2026-05-05 14:29 | 62.32257 | 27.18274 | 32682 ft | 478 kts | 2° |
| 2026-05-05 14:29 | 62.38811 | 27.20923 | 32651 ft | 480 kts | 2° |
| 2026-05-05 14:30 | 62.45371 | 27.23588 | 32648 ft | 480 kts | 2° |
| 2026-05-05 14:30 | 62.51940 | 27.26271 | 32640 ft | 480 kts | 2° |
| 2026-05-05 14:31 | 62.58509 | 27.28966 | 32639 ft | 480 kts | 2° |
| 2026-05-05 14:31 | 62.65074 | 27.31668 | 32659 ft | 481 kts | 2° |
| 2026-05-05 14:32 | 62.71674 | 27.34393 | 32630 ft | 484 kts | 2° |
| 2026-05-05 14:32 | 62.78295 | 27.37146 | 32625 ft | 484 kts | 2° |
| 2026-05-05 14:33 | 62.84825 | 27.39875 | 32616 ft | 484 kts | 2° |
| 2026-05-05 14:33 | 62.89094 | 27.41665 | 32607 ft | 485 kts | 2° |
| 2026-05-05 14:34 | 62.94929 | 27.44121 | 32664 ft | 484 kts | 2° |
| 2026-05-05 14:34 | 62.99789 | 27.46171 | 32621 ft | 485 kts | 2° |
| 2026-05-05 14:35 | 63.06436 | 27.48984 | 32610 ft | 487 kts | 2° |
| 2026-05-05 14:35 | 63.11318 | 27.51061 | 32612 ft | 488 kts | 2° |
| 2026-05-05 14:36 | 63.16450 | 27.53254 | 32609 ft | 488 kts | 2° |
| 2026-05-05 14:36 | 63.20145 | 27.54838 | 32607 ft | 488 kts | 2° |
| 2026-05-05 14:37 | 63.25687 | 27.57219 | 32680 ft | 488 kts | 2° |
| 2026-05-05 14:37 | 63.30990 | 27.59505 | 32612 ft | 488 kts | 3° |
| 2026-05-05 14:38 | 63.35284 | 27.61364 | 32601 ft | 488 kts | 3° |
| 2026-05-05 14:38 | 63.38557 | 27.62784 | 32607 ft | 488 kts | 3° |
| 2026-05-05 14:39 | 63.40687 | 27.63709 | 32609 ft | 488 kts | 2° |
| 2026-05-05 14:39 | 63.43029 | 27.64634 | 32521 ft | 487 kts | 1° |
| 2026-05-05 14:40 | 63.45967 | 27.65630 | 32623 ft | 484 kts | 360° |
| 2026-05-05 14:40 | 63.48678 | 27.66461 | 32626 ft | 482 kts | 359° |
| 2026-05-05 14:40 | 63.51785 | 27.67359 | 32617 ft | 482 kts | 359° |
| 2026-05-05 14:41 | 63.53774 | 27.67926 | 32632 ft | 481 kts | 359° |
| 2026-05-05 14:41 | 63.56590 | 27.68731 | 32609 ft | 481 kts | 359° |
| 2026-05-05 14:42 | 63.60002 | 27.69721 | 32564 ft | 482 kts | 360° |
| 2026-05-05 14:42 | 63.65424 | 27.71335 | 32604 ft | 480 kts | 0° |
| 2026-05-05 14:43 | 63.70226 | 27.72797 | 32607 ft | 481 kts | 0° |
| 2026-05-05 14:43 | 63.74835 | 27.74217 | 32580 ft | 481 kts | 0° |
| 2026-05-05 14:44 | 63.79412 | 27.75632 | 32575 ft | 481 kts | 0° |
| 2026-05-05 14:44 | 63.82367 | 27.76548 | 32578 ft | 482 kts | 0° |
| 2026-05-05 14:45 | 63.88661 | 27.78503 | 32574 ft | 482 kts | 0° |
| 2026-05-05 14:45 | 63.94072 | 27.80267 | 32572 ft | 484 kts | 5° |
| 2026-05-05 14:46 | 63.95280 | 27.80890 | 32578 ft | 486 kts | 7° |
| 2026-05-05 14:46 | 63.96082 | 27.81339 | 32574 ft | 485 kts | 7° |
| 2026-05-05 14:47 | 64.00920 | 27.84174 | 32562 ft | 486 kts | 8° |
| 2026-05-05 14:47 | 64.06594 | 27.87666 | 32559 ft | 487 kts | 9° |
| 2026-05-05 14:48 | 64.06757 | 27.87768 | 32559 ft | 487 kts | 9° |
| 2026-05-05 14:48 | 64.07156 | 27.88018 | 32562 ft | 487 kts | 9° |
| 2026-05-05 14:49 | 64.11891 | 27.91006 | 32554 ft | 487 kts | 9° |
| 2026-05-05 14:49 | 64.15673 | 27.93409 | 32552 ft | 488 kts | 9° |
| 2026-05-05 14:50 | 64.18943 | 27.95492 | 32553 ft | 488 kts | 9° |
| 2026-05-05 14:50 | 64.20438 | 27.96445 | 32564 ft | 487 kts | 9° |
| 2026-05-05 14:51 | 64.21128 | 27.96887 | 32507 ft | 486 kts | 9° |
| 2026-05-05 14:51 | 64.23716 | 27.98545 | 32320 ft | 482 kts | 10° |
| 2026-05-05 14:51 | 64.25841 | 27.99908 | 32066 ft | 477 kts | 10° |
| 2026-05-05 14:52 | 64.26792 | 28.00518 | 31935 ft | 475 kts | 9° |
| 2026-05-05 14:52 | 64.27348 | 28.00875 | 31869 ft | 474 kts | 9° |
| 2026-05-05 14:53 | 64.28508 | 28.01619 | 31679 ft | 474 kts | 9° |
| 2026-05-05 14:53 | 64.31096 | 28.03279 | 31299 ft | 470 kts | 9° |
| 2026-05-05 14:54 | 64.32019 | 28.03871 | 31148 ft | 468 kts | 9° |
| 2026-05-05 14:54 | 64.32583 | 28.04233 | 31090 ft | 467 kts | 9° |
| 2026-05-05 14:55 | 64.33178 | 28.04615 | 30966 ft | 467 kts | 9° |
| 2026-05-05 14:55 | 64.33194 | 28.04626 | 30964 ft | 467 kts | 9° |
| 2026-05-05 14:55 | 64.35452 | 28.06076 | 30643 ft | 464 kts | 9° |
| 2026-05-05 14:55 | 64.35904 | 28.06366 | 30593 ft | 464 kts | 9° |
| 2026-05-05 14:56 | 64.36749 | 28.06910 | 30468 ft | 462 kts | 9° |
| 2026-05-05 14:56 | 64.37447 | 28.07360 | 30361 ft | 461 kts | 9° |
| 2026-05-05 14:56 | 64.39786 | 28.08866 | 29987 ft | 458 kts | 8° |
| 2026-05-05 14:57 | 64.40908 | 28.09591 | 29837 ft | 457 kts | 8° |
| 2026-05-05 14:57 | 64.41129 | 28.09733 | 29789 ft | 456 kts | 8° |
| 2026-05-05 14:57 | 64.41295 | 28.09840 | 29774 ft | 456 kts | 8° |
| 2026-05-05 14:58 | 64.42771 | 28.10794 | 29565 ft | 454 kts | 8° |
| 2026-05-05 14:58 | 64.45208 | 28.12371 | 29111 ft | 450 kts | 8° |
| 2026-05-05 14:59 | 64.46995 | 28.13529 | 28817 ft | 446 kts | 8° |
| 2026-05-05 14:59 | 64.49965 | 28.15448 | 28392 ft | 440 kts | 8° |
| 2026-05-05 14:59 | 64.52845 | 28.17308 | 27996 ft | 434 kts | 9° |
| 2026-05-05 14:59 | 64.55190 | 28.18825 | 27614 ft | 429 kts | 9° |
| 2026-05-05 15:00 | 64.57981 | 28.20633 | 27171 ft | 424 kts | 10° |
| 2026-05-05 15:00 | 64.58790 | 28.21158 | 27024 ft | 423 kts | 10° |
| 2026-05-05 15:00 | 64.62568 | 28.23616 | 26452 ft | 416 kts | 10° |
| 2026-05-05 15:00 | 64.65340 | 28.25424 | 26016 ft | 411 kts | 10° |
| 2026-05-05 15:01 | 64.68079 | 28.27215 | 25594 ft | 406 kts | 11° |
| 2026-05-05 15:01 | 64.70771 | 28.28979 | 25176 ft | 402 kts | 11° |
| 2026-05-05 15:01 | 64.72556 | 28.30150 | 24867 ft | 399 kts | 11° |
| 2026-05-05 15:01 | 64.73788 | 28.30960 | 24688 ft | 397 kts | 11° |
| 2026-05-05 15:02 | 64.74425 | 28.31379 | 24581 ft | 396 kts | 11° |
| 2026-05-05 15:02 | 64.74902 | 28.31693 | 24484 ft | 396 kts | 11° |
| 2026-05-05 15:02 | 64.75079 | 28.31809 | 24465 ft | 396 kts | 11° |
| 2026-05-05 15:03 | 64.76266 | 28.32590 | 24249 ft | 394 kts | 11° |
| 2026-05-05 15:03 | 64.78889 | 28.34320 | 23876 ft | 390 kts | 11° |
| 2026-05-05 15:03 | 64.81487 | 28.36036 | 23463 ft | 386 kts | 12° |
| 2026-05-05 15:03 | 64.83192 | 28.37164 | 23184 ft | 385 kts | 12° |
| 2026-05-05 15:04 | 64.85136 | 28.38451 | 22818 ft | 382 kts | 13° |
| 2026-05-05 15:04 | 64.87679 | 28.40140 | 22360 ft | 377 kts | 13° |
| 2026-05-05 15:04 | 64.90179 | 28.41805 | 21960 ft | 370 kts | 13° |
| 2026-05-05 15:04 | 64.92631 | 28.43442 | 21566 ft | 364 kts | 13° |
| 2026-05-05 15:05 | 64.97431 | 28.46650 | 20773 ft | 353 kts | 14° |
| 2026-05-05 15:05 | 64.99775 | 28.48223 | 20388 ft | 347 kts | 14° |
| 2026-05-05 15:05 | 65.02081 | 28.49771 | 20010 ft | 342 kts | 13° |
| 2026-05-05 15:06 | 65.04359 | 28.51302 | 19636 ft | 337 kts | 14° |
| 2026-05-05 15:06 | 65.05087 | 28.51792 | 19524 ft | 336 kts | 14° |
| 2026-05-05 15:06 | 65.06660 | 28.52852 | 19255 ft | 332 kts | 14° |
| 2026-05-05 15:06 | 65.08547 | 28.54126 | 18942 ft | 328 kts | 14° |
| 2026-05-05 15:07 | 65.09994 | 28.55105 | 18703 ft | 325 kts | 14° |
| 2026-05-05 15:07 | 65.11867 | 28.56372 | 18392 ft | 321 kts | 15° |
| 2026-05-05 15:07 | 65.14003 | 28.57819 | 18042 ft | 318 kts | 15° |
| 2026-05-05 15:07 | 65.16113 | 28.59251 | 17680 ft | 314 kts | 15° |
| 2026-05-05 15:08 | 65.18205 | 28.60676 | 17304 ft | 310 kts | 15° |
| 2026-05-05 15:08 | 65.20251 | 28.62071 | 16976 ft | 310 kts | 14° |
| 2026-05-05 15:08 | 65.22354 | 28.63505 | 16616 ft | 312 kts | 14° |
| 2026-05-05 15:08 | 65.24400 | 28.64905 | 16271 ft | 309 kts | 14° |
| 2026-05-05 15:09 | 65.24673 | 28.65093 | 16224 ft | 309 kts | 14° |
| 2026-05-05 15:09 | 65.26495 | 28.66340 | 15922 ft | 308 kts | 13° |
| 2026-05-05 15:09 | 65.28553 | 28.67752 | 15590 ft | 308 kts | 14° |
| 2026-05-05 15:09 | 65.30613 | 28.69167 | 15242 ft | 308 kts | 13° |
| 2026-05-05 15:10 | 65.32672 | 28.70584 | 14888 ft | 307 kts | 12° |
| 2026-05-05 15:10 | 65.34724 | 28.72000 | 14539 ft | 306 kts | 12° |
| 2026-05-05 15:10 | 65.36765 | 28.73407 | 14207 ft | 306 kts | 14° |
| 2026-05-05 15:10 | 65.38740 | 28.74772 | 13879 ft | 306 kts | 11° |
| 2026-05-05 15:11 | 65.40410 | 28.75928 | 13608 ft | 305 kts | 12° |
| 2026-05-05 15:11 | 65.42447 | 28.77343 | 13253 ft | 304 kts | 12° |
| 2026-05-05 15:11 | 65.44478 | 28.78753 | 12882 ft | 303 kts | 12° |
| 2026-05-05 15:11 | 65.46498 | 28.80155 | 12552 ft | 300 kts | 13° |
| 2026-05-05 15:12 | 65.48488 | 28.81543 | 12196 ft | 296 kts | 12° |
| 2026-05-05 15:12 | 65.50451 | 28.82916 | 11859 ft | 293 kts | 12° |
| 2026-05-05 15:12 | 65.52410 | 28.84284 | 11527 ft | 293 kts | 13° |
| 2026-05-05 15:12 | 65.54364 | 28.85650 | 11198 ft | 292 kts | 12° |
| 2026-05-05 15:13 | 65.56313 | 28.87016 | 10882 ft | 291 kts | 13° |
| 2026-05-05 15:13 | 65.58259 | 28.88383 | 10573 ft | 290 kts | 12° |
| 2026-05-05 15:13 | 65.60193 | 28.89743 | 10222 ft | 289 kts | 13° |
| 2026-05-05 15:13 | 65.62122 | 28.91101 | 9898 ft | 288 kts | 13° |
| 2026-05-05 15:14 | 65.63294 | 28.91928 | 9703 ft | 288 kts | 13° |
| 2026-05-05 15:14 | 65.64340 | 28.92667 | 9549 ft | 284 kts | 13° |
| 2026-05-05 15:14 | 65.66205 | 28.93988 | 9460 ft | 280 kts | 13° |
| 2026-05-05 15:14 | 65.67557 | 28.95011 | 9456 ft | 283 kts | 17° |
| 2026-05-05 15:15 | 65.69258 | 28.97261 | 9010 ft | 290 kts | 37° |
| 2026-05-05 15:15 | 65.70564 | 29.01055 | 8487 ft | 295 kts | 53° |
| 2026-05-05 15:15 | 65.71641 | 29.05294 | 7959 ft | 295 kts | 56° |
| 2026-05-05 15:15 | 65.72661 | 29.09512 | 7495 ft | 292 kts | 57° |
| 2026-05-05 15:16 | 65.73689 | 29.13762 | 7011 ft | 291 kts | 56° |
| 2026-05-05 15:16 | 65.74718 | 29.17984 | 6561 ft | 289 kts | 56° |
| 2026-05-05 15:16 | 65.75734 | 29.22144 | 6237 ft | 283 kts | 56° |
| 2026-05-05 15:16 | 65.76747 | 29.26274 | 5748 ft | 283 kts | 56° |
| 2026-05-05 15:17 | 65.77761 | 29.30403 | 5091 ft | 288 kts | 55° |
| 2026-05-05 15:17 | 65.77991 | 29.31340 | 4985 ft | 288 kts | 56° |
| 2026-05-05 15:17 | 65.79009 | 29.35498 | 4619 ft | 283 kts | 55° |
| 2026-05-05 15:17 | 65.80004 | 29.39570 | 4247 ft | 278 kts | 55° |
| 2026-05-05 15:18 | 65.81147 | 29.43264 | 3908 ft | 268 kts | 41° |
| 2026-05-05 15:18 | 65.82024 | 29.45397 | 3648 ft | 264 kts | 38° |
| 2026-05-05 15:18 | 65.82686 | 29.46903 | 3453 ft | 264 kts | 38° |
| 2026-05-05 15:18 | 65.83476 | 29.48662 | 3183 ft | 264 kts | 37° |
| 2026-05-05 15:19 | 65.84904 | 29.51367 | 2818 ft | 255 kts | 23° |
| 2026-05-05 15:19 | 65.86551 | 29.52500 | 2438 ft | 240 kts | 354° |
| 2026-05-05 15:19 | 65.88089 | 29.51668 | 2349 ft | 217 kts | 328° |
| 2026-05-05 15:19 | 65.89268 | 29.49532 | 2370 ft | 205 kts | 312° |
| 2026-05-05 15:20 | 65.90224 | 29.47089 | 2366 ft | 196 kts | 309° |
| 2026-05-05 15:20 | 65.91108 | 29.44673 | 2358 ft | 180 kts | 311° |
| 2026-05-05 15:20 | 65.91886 | 29.42546 | 2340 ft | 155 kts | 311° |
| 2026-05-05 15:20 | 65.92580 | 29.40657 | 2352 ft | 141 kts | 311° |
| 2026-05-05 15:21 | 65.93203 | 29.38967 | 2188 ft | 128 kts | 311° |
| 2026-05-05 15:21 | 65.93789 | 29.37383 | 1969 ft | 124 kts | 310° |
| 2026-05-05 15:21 | 65.94372 | 29.35810 | 1825 ft | 125 kts | 310° |
| 2026-05-05 15:21 | 65.94960 | 29.34221 | 1666 ft | 127 kts | 309° |
| 2026-05-05 15:22 | 65.95565 | 29.32614 | 1513 ft | 133 kts | 310° |
| 2026-05-05 15:22 | 65.96204 | 29.30960 | 1417 ft | 131 kts | 306° |
| 2026-05-05 15:22 | 65.96801 | 29.29318 | 1226 ft | 128 kts | 308° |
| 2026-05-05 15:22 | 65.97400 | 29.27666 | 1053 ft | 131 kts | 309° |
| 2026-05-05 15:23 | 65.97990 | 29.26023 | 903 ft | 125 kts | 307° |
| 2026-05-05 15:23 | 65.98517 | 29.24568 | 880 ft | 103 kts | 312° |
| 2026-05-05 15:23 | 65.98946 | 29.23414 | 878 ft | 83 kts | 313° |
| 2026-05-05 15:23 | 65.99258 | 29.22584 | 878 ft | 42 kts | 313° |
| 2026-05-05 15:24 | 65.99426 | 29.22224 | 875 ft | 9 kts | 353° |
| 2026-05-05 15:24 | 65.99484 | 29.22304 | 876 ft | 14 kts | 39° |
| 2026-05-05 15:24 | 65.99551 | 29.22507 | 881 ft | 4 kts | 72° |
| 2026-05-05 15:24 | 65.99556 | 29.22540 | 882 ft | 0 kts | 73° |